createdAt,value
2018-01-29T00:00:37.547Z,95475.44
2018-01-29T00:03:04.197Z,95475.52
2018-01-29T00:05:30.786Z,95480.98
2018-01-29T00:07:58.174Z,95477.75
2018-01-29T00:10:24.758Z,95476.20
2018-01-29T00:12:51.319Z,95481.20
2018-01-29T00:15:17.940Z,95479.42
2018-01-29T00:17:44.506Z,95477.19
2018-01-29T00:20:11.102Z,95472.20
2018-01-29T00:22:38.502Z,95474.23
2018-01-29T00:25:05.076Z,95468.30
2018-01-29T00:27:31.793Z,95463.64
2018-01-29T00:29:58.427Z,95459.63
2018-01-29T00:32:25.170Z,95459.27
2018-01-29T00:34:51.784Z,95455.42
2018-01-29T00:37:18.353Z,95461.41
2018-01-29T00:39:45.030Z,95458.55
2018-01-29T00:42:11.643Z,95453.24
2018-01-29T00:44:38.213Z,95452.36
2018-01-29T00:47:05.679Z,95450.23
2018-01-29T00:49:33.078Z,95444.62
2018-01-29T00:51:59.646Z,95445.08
2018-01-29T00:54:26.237Z,95446.53
2018-01-29T00:56:52.926Z,95438.95
2018-01-29T00:59:19.690Z,95443.79
2018-01-29T01:01:47.035Z,95445.92
2018-01-29T01:04:13.667Z,95451.84
2018-01-29T01:06:41.041Z,95456.63
2018-01-29T01:09:08.855Z,95448.64
2018-01-29T01:11:35.454Z,95449.47
2018-01-29T01:14:02.021Z,95451.02
2018-01-29T01:16:28.657Z,95447.59
2018-01-29T01:18:55.441Z,95449.30
2018-01-29T01:21:22.773Z,95443.94
2018-01-29T01:23:50.127Z,95441.92
2018-01-29T01:26:16.725Z,95442.08
2018-01-29T01:28:43.321Z,95440.42
2018-01-29T01:31:10.642Z,95439.48
2018-01-29T01:33:37.265Z,95440.38
2018-01-29T01:36:03.929Z,95448.42
2018-01-29T01:38:30.494Z,95443.33
2018-01-29T01:40:57.853Z,95450.66
2018-01-29T01:43:24.447Z,95443.28
2018-01-29T01:45:51.115Z,95440.98
2018-01-29T01:48:17.703Z,95432.16
2018-01-29T01:50:44.322Z,95432.83
2018-01-29T01:53:11.022Z,95430.34
2018-01-29T01:55:37.701Z,95427.33
2018-01-29T01:58:04.398Z,95424.61
2018-01-29T02:00:31.763Z,95427.79
2018-01-29T02:02:58.371Z,95424.09
2018-01-29T02:05:24.946Z,95425.97
2018-01-29T02:07:52.282Z,95420.25
2018-01-29T02:10:18.886Z,95421.19
2018-01-29T02:12:45.580Z,95422.70
2018-01-29T02:15:12.310Z,95420.35
2018-01-29T02:17:38.937Z,95414.48
2018-01-29T02:20:05.577Z,95418.34
2018-01-29T02:22:32.945Z,95417.03
2018-01-29T02:24:59.541Z,95416.87
2018-01-29T02:27:26.154Z,95417.86
2018-01-29T02:29:52.730Z,95413.50
2018-01-29T02:32:19.410Z,95407.72
2018-01-29T02:34:46.028Z,95409.54
2018-01-29T02:37:13.420Z,95404.14
2018-01-29T02:39:40.006Z,95404.34
2018-01-29T02:42:07.356Z,95413.38
2018-01-29T02:44:34.695Z,95413.54
2018-01-29T02:47:01.310Z,95409.06
2018-01-29T02:49:27.945Z,95404.23
2018-01-29T02:51:54.551Z,95392.34
2018-01-29T02:54:21.156Z,95388.49
2018-01-29T02:56:47.864Z,95386.55
2018-01-29T02:59:14.493Z,95387.80
2018-01-29T03:01:41.074Z,95384.17
2018-01-29T03:04:08.426Z,95387.48
2018-01-29T03:06:35.761Z,95383.68
2018-01-29T03:09:02.591Z,95385.04
2018-01-29T03:11:29.184Z,95390.95
2018-01-29T03:13:55.770Z,95390.88
2018-01-29T03:16:22.370Z,95387.11
2018-01-29T03:18:48.979Z,95394.45
2018-01-29T03:21:15.749Z,95392.73
2018-01-29T03:23:42.321Z,95403.25
2018-01-29T03:26:08.901Z,95399.92
2018-01-29T03:28:36.220Z,95400.55
2018-01-29T03:31:02.781Z,95403.98
2018-01-29T03:33:29.346Z,95404.03
2018-01-29T03:35:56.002Z,95398.48
2018-01-29T03:38:22.622Z,95402.97
2018-01-29T03:40:49.267Z,95396.44
2018-01-29T03:43:15.875Z,95397.85
2018-01-29T03:45:42.480Z,95398.16
2018-01-29T03:48:09.065Z,95401.78
2018-01-29T03:50:35.754Z,95397.09
2018-01-29T03:53:02.311Z,95394.91
2018-01-29T03:55:29.642Z,95394.32
2018-01-29T03:57:56.266Z,95405.11
2018-01-29T04:00:22.986Z,95407.99
2018-01-29T04:02:49.599Z,95398.92
2018-01-29T04:05:16.213Z,95408.30
2018-01-29T04:07:43.546Z,95406.27
2018-01-29T04:10:10.935Z,95406.11
2018-01-29T04:12:37.606Z,95403.20
2018-01-29T04:15:04.225Z,95409.32
2018-01-29T04:17:30.826Z,95406.66
2018-01-29T04:19:57.389Z,95408.47
2018-01-29T04:22:23.995Z,95416.28
2018-01-29T04:24:50.578Z,95412.13
2018-01-29T04:27:17.166Z,95411.81
2018-01-29T04:29:43.738Z,95416.71
2018-01-29T04:32:10.366Z,95412.87
2018-01-29T04:34:36.991Z,95406.78
2018-01-29T04:37:04.305Z,95395.19
2018-01-29T04:39:30.980Z,95390.80
2018-01-29T04:41:58.326Z,95383.64
2018-01-29T04:44:25.714Z,95393.58
2018-01-29T04:46:52.347Z,95387.64
2018-01-29T04:49:18.910Z,95390.48
2018-01-29T04:51:45.530Z,95389.56
2018-01-29T04:54:12.094Z,95399.60
2018-01-29T04:56:38.677Z,95398.30
2018-01-29T04:59:06.090Z,95398.63
2018-01-29T05:01:32.658Z,95398.89
2018-01-29T05:03:59.305Z,95399.78
2018-01-29T05:06:26.630Z,95399.64
2018-01-29T05:08:53.194Z,95403.17
2018-01-29T05:11:20.589Z,95400.07
2018-01-29T05:13:47.255Z,95404.20
2018-01-29T05:16:14.650Z,95415.16
2018-01-29T05:18:41.489Z,95413.36
2018-01-29T05:21:08.890Z,95420.34
2018-01-29T05:23:35.448Z,95421.38
2018-01-29T05:26:02.116Z,95430.53
2018-01-29T05:28:29.423Z,95424.33
2018-01-29T05:30:56.035Z,95431.78
2018-01-29T05:33:22.731Z,95433.25
2018-01-29T05:36:02.214Z,95442.73
2018-01-29T05:38:35.782Z,95449.50
2018-01-29T05:41:03.177Z,95447.03
2018-01-29T05:43:29.787Z,95447.22
2018-01-29T05:45:56.391Z,95448.28
2018-01-29T05:48:23.325Z,95447.32
2018-01-29T05:50:50.017Z,95445.00
2018-01-29T05:53:17.454Z,95449.50
2018-01-29T05:55:44.054Z,95449.49
2018-01-29T05:58:10.735Z,95448.57
2018-01-29T06:00:37.371Z,95449.58
2018-01-29T06:03:03.947Z,95442.78
2018-01-29T06:05:30.634Z,95439.91
2018-01-29T06:07:57.196Z,95445.98
2018-01-29T06:10:24.523Z,95438.75
2018-01-29T06:12:51.146Z,95434.03
2018-01-29T06:15:17.774Z,95434.18
2018-01-29T06:17:44.442Z,95434.18
2018-01-29T06:20:10.993Z,95441.12
2018-01-29T06:22:37.628Z,95439.55
2018-01-29T06:25:04.994Z,95443.16
2018-01-29T06:27:31.594Z,95439.86
2018-01-29T06:29:58.192Z,95440.15
2018-01-29T06:32:25.690Z,95435.46
2018-01-29T06:34:52.338Z,95427.37
2018-01-29T06:37:18.890Z,95423.91
2018-01-29T06:39:45.463Z,95427.98
2018-01-29T06:42:12.070Z,95425.75
2018-01-29T06:44:38.715Z,95424.52
2018-01-29T06:47:05.438Z,95424.94
2018-01-29T06:49:32.761Z,95422.02
2018-01-29T06:51:59.301Z,95424.31
2018-01-29T06:54:26.033Z,95423.30
2018-01-29T06:56:52.609Z,95414.99
2018-01-29T06:59:19.187Z,95411.28
2018-01-29T07:01:45.816Z,95409.53
2018-01-29T07:04:12.386Z,95400.57
2018-01-29T07:06:38.926Z,95396.86
2018-01-29T07:09:06.278Z,95390.27
2018-01-29T07:11:32.985Z,95382.67
2018-01-29T07:14:00.442Z,95389.19
2018-01-29T07:16:27.027Z,95385.62
2018-01-29T07:18:54.342Z,95384.05
2018-01-29T07:21:20.954Z,95381.56
2018-01-29T07:23:47.540Z,95379.25
2018-01-29T07:26:14.114Z,95379.39
2018-01-29T07:28:40.771Z,95384.70
2018-01-29T07:31:08.066Z,95388.82
2018-01-29T07:33:34.652Z,95388.21
2018-01-29T07:36:01.214Z,95395.48
2018-01-29T07:38:27.893Z,95389.83
2018-01-29T07:40:54.487Z,95386.42
2018-01-29T07:43:21.188Z,95387.13
2018-01-29T07:45:47.805Z,95384.22
2018-01-29T07:48:14.415Z,95373.54
2018-01-29T07:50:41.017Z,95373.67
2018-01-29T07:53:07.728Z,95362.09
2018-01-29T07:55:34.294Z,95369.16
2018-01-29T07:58:00.885Z,95366.40
2018-01-29T08:00:28.277Z,95367.75
2018-01-29T08:02:54.869Z,95360.37
2018-01-29T08:05:21.517Z,95349.98
2018-01-29T08:07:48.078Z,95353.77
2018-01-29T08:10:14.683Z,95352.19
2018-01-29T08:12:41.263Z,95343.26
2018-01-29T08:15:08.118Z,95340.71
2018-01-29T08:17:34.715Z,95335.06
2018-01-29T08:20:02.118Z,95331.78
2018-01-29T08:22:29.261Z,95327.46
2018-01-29T08:24:55.871Z,95325.09
2018-01-29T08:27:23.555Z,95320.70
2018-01-29T08:29:50.125Z,95328.25
2018-01-29T08:32:16.701Z,95324.34
2018-01-29T08:34:43.314Z,95321.77
2018-01-29T08:37:10.846Z,95314.38
2018-01-29T08:39:37.414Z,95311.78
2018-01-29T08:42:04.778Z,95319.47
2018-01-29T08:44:31.418Z,95311.54
2018-01-29T08:46:58.061Z,95306.37
2018-01-29T08:49:24.686Z,95303.63
2018-01-29T08:51:52.011Z,95302.64
2018-01-29T08:54:18.614Z,95305.70
2018-01-29T08:56:45.238Z,95302.75
2018-01-29T08:59:11.838Z,95291.53
2018-01-29T09:01:39.291Z,95292.51
2018-01-29T09:04:05.962Z,95288.39
2018-01-29T09:06:32.585Z,95291.33
2018-01-29T09:08:59.241Z,95286.59
2018-01-29T09:11:25.842Z,95284.09
2018-01-29T09:13:52.438Z,95283.33
2018-01-29T09:16:19.071Z,95286.73
2018-01-29T09:18:45.655Z,95286.16
2018-01-29T09:21:12.243Z,95290.04
2018-01-29T09:23:38.855Z,95288.54
2018-01-29T09:26:06.391Z,95285.64
2018-01-29T09:28:33.678Z,95288.72
2018-01-29T09:31:00.255Z,95287.97
2018-01-29T09:33:26.919Z,95288.09
2018-01-29T09:35:54.278Z,95291.41
2018-01-29T09:38:20.871Z,95290.55
2018-01-29T09:40:47.435Z,95289.78
2018-01-29T09:43:14.846Z,95290.98
2018-01-29T09:45:41.438Z,95291.34
2018-01-29T09:48:08.798Z,95286.52
2018-01-29T09:50:36.149Z,95295.03
2018-01-29T09:53:03.566Z,95297.97
2018-01-29T09:55:30.151Z,95298.48
2018-01-29T09:57:56.769Z,95298.81
2018-01-29T10:00:23.758Z,95305.79
2018-01-29T10:02:50.421Z,95300.36
2018-01-29T10:05:17.148Z,95298.76
2018-01-29T10:07:43.732Z,95299.02
2018-01-29T10:10:10.430Z,95296.63
2018-01-29T10:12:37.021Z,95302.45
2018-01-29T10:15:04.385Z,95296.33
2018-01-29T10:17:31.082Z,95293.26
2018-01-29T10:19:58.439Z,95285.33
2018-01-29T10:22:25.127Z,95286.05
2018-01-29T10:24:51.721Z,95280.14
2018-01-29T10:27:18.380Z,95276.43
2018-01-29T10:29:45.015Z,95277.50
2018-01-29T10:32:11.795Z,95272.59
2018-01-29T10:34:38.398Z,95271.48
2018-01-29T10:37:05.746Z,95265.22
2018-01-29T10:39:33.105Z,95249.52
2018-01-29T10:41:59.715Z,95249.00
2018-01-29T10:44:26.349Z,95241.11
2018-01-29T10:46:52.933Z,95229.67
2018-01-29T10:49:19.558Z,95224.81
2018-01-29T10:51:46.159Z,95221.25
2018-01-29T10:54:12.741Z,95213.36
2018-01-29T10:56:39.366Z,95203.82
2018-01-29T10:59:06.762Z,95200.61
2018-01-29T11:01:33.430Z,95190.38
2018-01-29T11:03:59.978Z,95179.80
2018-01-29T11:06:27.896Z,95179.39
2018-01-29T11:08:54.463Z,95166.75
2018-01-29T11:11:21.486Z,95158.15
2018-01-29T11:13:48.074Z,95151.03
2018-01-29T11:16:14.695Z,95143.30
2018-01-29T11:18:42.243Z,95136.93
2018-01-29T11:21:08.820Z,95133.73
2018-01-29T11:23:35.459Z,95129.78
2018-01-29T11:26:02.042Z,95128.47
2018-01-29T11:28:29.026Z,95125.25
2018-01-29T11:30:55.610Z,95107.52
2018-01-29T11:33:22.181Z,95111.91
2018-01-29T11:35:48.737Z,95106.24
2018-01-29T11:38:16.099Z,95109.05
2018-01-29T11:40:42.674Z,95106.74
2018-01-29T11:43:09.290Z,95095.94
2018-01-29T11:45:35.854Z,95101.28
2018-01-29T11:48:02.482Z,95097.62
2018-01-29T11:50:29.070Z,95096.99
2018-01-29T11:52:56.394Z,95084.63
2018-01-29T11:55:23.014Z,95088.02
2018-01-29T11:57:49.606Z,95080.91
2018-01-29T12:00:17.350Z,95082.41
2018-01-29T12:02:43.916Z,95079.73
2018-01-29T12:05:10.483Z,95074.14
2018-01-29T12:07:37.419Z,95070.21
2018-01-29T12:10:04.130Z,95064.22
2018-01-29T12:12:30.763Z,95061.41
2018-01-29T12:14:57.386Z,95053.54
2018-01-29T12:17:24.695Z,95054.44
2018-01-29T12:19:52.121Z,95046.58
2018-01-29T12:22:18.734Z,95049.93
2018-01-29T12:24:46.026Z,95040.89
2018-01-29T12:27:12.611Z,95032.47
2018-01-29T12:29:39.207Z,95032.88
2018-01-29T12:32:05.844Z,95024.27
2018-01-29T12:34:32.464Z,95032.24
2018-01-29T12:36:59.051Z,95025.50
2018-01-29T12:39:26.398Z,95012.73
2018-01-29T12:41:53.009Z,95006.92
2018-01-29T12:44:19.601Z,95011.22
2018-01-29T12:46:46.205Z,95010.02
2018-01-29T12:49:12.806Z,95004.91
2018-01-29T12:51:39.360Z,94996.56
2018-01-29T12:54:05.957Z,95004.91
2018-01-29T12:56:32.590Z,94994.50
2018-01-29T12:58:59.962Z,94994.25
2018-01-29T13:01:26.587Z,94984.51
2018-01-29T13:03:53.186Z,94983.63
2018-01-29T13:06:19.789Z,94977.05
2018-01-29T13:08:46.418Z,94980.42
2018-01-29T13:11:13.000Z,94976.63
2018-01-29T13:13:39.603Z,94984.10
2018-01-29T13:16:06.954Z,94977.95
2018-01-29T13:18:33.610Z,94982.21
2018-01-29T13:21:00.201Z,94980.09
2018-01-29T13:23:26.758Z,94976.14
2018-01-29T13:25:53.359Z,94976.55
2018-01-29T13:28:20.679Z,94967.77
2018-01-29T13:30:47.315Z,94962.64
2018-01-29T13:33:14.006Z,94955.50
2018-01-29T13:35:40.611Z,94960.07
2018-01-29T13:38:07.228Z,94957.88
2018-01-29T13:40:33.842Z,94954.58
2018-01-29T13:43:00.502Z,94946.64
2018-01-29T13:45:27.877Z,94938.93
2018-01-29T13:47:54.486Z,94941.47
2018-01-29T13:50:21.149Z,94930.43
2018-01-29T13:52:47.730Z,94921.56
2018-01-29T14:08:05.270Z,94915.58
2018-01-29T14:10:31.928Z,94920.33
2018-01-29T14:12:59.303Z,94910.80
2018-01-29T14:15:26.629Z,94915.36
2018-01-29T14:17:53.257Z,94911.98
2018-01-29T14:20:19.872Z,94918.95
2018-01-29T14:22:46.443Z,94917.67
2018-01-29T14:25:13.073Z,94916.39
2018-01-29T14:27:39.701Z,94915.41
2018-01-29T14:30:06.280Z,94910.18
2018-01-29T14:32:33.610Z,94915.92
2018-01-29T14:35:00.189Z,94914.87
2018-01-29T14:37:26.781Z,94908.55
2018-01-29T14:39:53.375Z,94907.66
2018-01-29T14:42:19.952Z,94902.48
2018-01-29T14:44:46.605Z,94895.34
2018-01-29T14:47:13.198Z,94903.16
2018-01-29T14:49:39.814Z,94899.50
2018-01-29T14:52:06.386Z,94892.33
2018-01-29T14:54:32.982Z,94892.84
2018-01-29T14:56:59.606Z,94903.70
2018-01-29T14:59:26.958Z,94903.61
2018-01-29T15:01:54.295Z,94901.70
2018-01-29T15:04:21.679Z,94902.81
2018-01-29T15:06:48.257Z,94907.97
2018-01-29T15:09:14.879Z,94911.74
2018-01-29T15:11:41.495Z,94915.34
2018-01-29T15:14:08.066Z,94911.94
2018-01-29T15:16:34.669Z,94919.17
2018-01-29T15:19:01.266Z,94925.17
2018-01-29T15:21:27.862Z,94920.33
2018-01-29T15:23:54.514Z,94923.86
2018-01-29T15:26:21.121Z,94933.76
2018-01-29T15:28:47.684Z,94929.52
2018-01-29T15:31:14.343Z,94928.81
2018-01-29T15:33:40.947Z,94925.55
2018-01-29T15:36:07.607Z,94927.30
2018-01-29T15:38:34.185Z,94937.59
2018-01-29T15:41:01.557Z,94935.67
2018-01-29T15:43:28.142Z,94934.86
2018-01-29T15:45:54.753Z,94937.27
2018-01-29T15:48:21.356Z,94931.42
2018-01-29T15:50:48.722Z,94931.95
2018-01-29T15:53:15.495Z,94935.02
2018-01-29T15:55:42.074Z,94943.02
2018-01-29T15:58:09.418Z,94941.71
2018-01-29T16:00:36.029Z,94947.03
2018-01-29T16:03:02.593Z,94945.28
2018-01-29T16:05:29.188Z,94950.95
2018-01-29T16:07:55.810Z,94948.75
2018-01-29T16:10:22.378Z,94939.85
2018-01-29T16:12:48.978Z,94945.06
2018-01-29T16:15:15.568Z,94951.86
2018-01-29T16:17:42.154Z,94950.50
2018-01-29T16:20:08.749Z,94949.30
2018-01-29T16:22:35.353Z,94949.16
2018-01-29T16:25:01.966Z,94953.06
2018-01-29T16:27:28.597Z,94946.66
2018-01-29T16:29:55.245Z,94935.05
2018-01-29T16:32:21.840Z,94942.50
2018-01-29T16:34:49.231Z,94938.66
2018-01-29T16:37:15.833Z,94943.66
2018-01-29T16:39:43.587Z,94940.44
2018-01-29T16:42:13.107Z,94943.53
2018-01-29T16:44:40.453Z,94941.67
2018-01-29T16:47:07.166Z,94940.58
2018-01-29T16:49:33.799Z,94942.78
2018-01-29T16:52:01.185Z,94944.12
2018-01-29T16:54:27.849Z,94947.78
2018-01-29T16:56:54.457Z,94958.64
2018-01-29T16:59:21.106Z,94949.88
2018-01-29T17:01:48.454Z,94947.48
2018-01-29T17:04:15.763Z,94946.80
2018-01-29T17:06:42.387Z,94953.83
2018-01-29T17:09:08.998Z,94947.23
2018-01-29T17:11:35.569Z,94957.75
2018-01-29T17:14:02.194Z,94960.36
2018-01-29T17:16:28.828Z,94960.63
2018-01-29T17:18:55.357Z,94961.25
2018-01-29T17:21:21.971Z,94951.91
2018-01-29T17:23:49.319Z,94958.55
2018-01-29T17:26:16.698Z,94954.14
2018-01-29T17:28:43.421Z,94961.29
2018-01-29T17:31:10.179Z,94953.59
2018-01-29T17:33:36.816Z,94952.53
2018-01-29T17:36:03.513Z,94962.05
2018-01-29T17:38:30.102Z,94960.74
2018-01-29T17:40:56.735Z,94958.30
2018-01-29T17:43:23.355Z,94957.34
2018-01-29T17:45:49.962Z,94961.02
2018-01-29T17:48:17.291Z,94957.48
2018-01-29T17:50:43.925Z,94957.06
2018-01-29T17:53:10.503Z,94962.73
2018-01-29T17:55:37.965Z,94961.91
2018-01-29T17:58:04.529Z,94959.74
2018-01-29T18:00:31.235Z,94961.77
2018-01-29T18:02:57.861Z,94959.81
2018-01-29T18:05:25.347Z,94952.63
2018-01-29T18:07:52.032Z,94959.91
2018-01-29T18:10:18.641Z,94962.02
2018-01-29T18:12:45.315Z,94958.74
2018-01-29T18:15:11.976Z,94974.81
2018-01-29T18:17:39.314Z,94970.48
2018-01-29T18:20:05.993Z,94977.38
2018-01-29T18:22:32.640Z,94979.68
2018-01-29T18:24:59.389Z,94971.41
2018-01-29T18:27:25.964Z,94972.81
2018-01-29T18:29:52.551Z,94983.96
2018-01-29T18:32:19.306Z,94985.93
2018-01-29T18:34:45.858Z,94987.16
2018-01-29T18:37:12.605Z,94984.41
2018-01-29T18:39:39.254Z,94991.35
2018-01-29T18:42:05.862Z,94993.98
2018-01-29T18:44:32.454Z,94997.97
2018-01-29T18:46:59.870Z,94999.20
2018-01-29T18:49:26.495Z,95008.02
2018-01-29T18:51:53.149Z,95013.88
2018-01-29T18:54:19.743Z,95016.35
2018-01-29T18:56:46.412Z,95018.71
2018-01-29T18:59:13.115Z,95017.34
2018-01-29T19:01:39.720Z,95014.95
2018-01-29T19:04:06.340Z,95011.22
2018-01-29T19:06:33.104Z,95004.51
2018-01-29T19:08:59.740Z,94998.16
2018-01-29T19:11:27.097Z,95007.12
2018-01-29T19:13:53.714Z,95000.77
2018-01-29T19:16:20.346Z,95005.50
2018-01-29T19:18:46.942Z,94993.27
2018-01-29T19:21:14.406Z,94993.84
2018-01-29T19:23:41.017Z,94995.23
2018-01-29T19:26:07.693Z,94990.00
2018-01-29T19:28:34.395Z,94993.44
2018-01-29T19:31:00.998Z,94994.56
2018-01-29T19:33:27.615Z,95000.77
2018-01-29T19:35:54.266Z,95009.78
2018-01-29T19:38:20.916Z,95001.97
2018-01-29T19:40:47.553Z,94997.34
2018-01-29T19:43:14.226Z,94990.82
2018-01-29T19:45:40.839Z,94997.60
2018-01-29T19:48:07.414Z,94999.36
2018-01-29T19:50:34.079Z,94999.64
2018-01-29T19:53:00.721Z,95004.76
2018-01-29T19:55:27.335Z,95004.45
2018-01-29T19:57:54.012Z,95011.86
2018-01-29T20:00:20.683Z,95016.80
2018-01-29T20:02:47.361Z,95012.95
2018-01-29T20:05:14.158Z,95020.65
2018-01-29T20:07:41.550Z,95023.28
2018-01-29T20:10:08.223Z,95021.22
2018-01-29T20:12:35.582Z,95026.48
2018-01-29T20:15:02.259Z,95022.44
2018-01-29T20:17:28.930Z,95021.08
2018-01-29T20:19:55.535Z,95018.88
2018-01-29T20:22:22.150Z,95004.06
2018-01-29T20:24:48.770Z,95017.63
2018-01-29T20:27:15.366Z,95005.43
2018-01-29T20:29:42.000Z,95011.17
2018-01-29T20:32:08.645Z,95007.05
2018-01-29T20:34:35.278Z,95012.70
2018-01-29T20:37:01.942Z,95015.72
2018-01-29T20:39:29.306Z,95016.13
2018-01-29T20:41:56.074Z,95015.43
2018-01-29T20:44:22.706Z,95014.23
2018-01-29T20:46:50.110Z,95037.66
2018-01-29T20:49:16.705Z,95051.18
2018-01-29T20:51:43.437Z,95037.09
2018-01-29T20:54:10.793Z,95045.78
2018-01-29T20:56:37.419Z,95055.08
2018-01-29T20:59:04.207Z,95062.42
2018-01-29T21:01:30.866Z,95058.11
2018-01-29T21:03:57.588Z,95056.87
2018-01-29T21:06:24.210Z,95061.83
2018-01-29T21:08:51.135Z,95060.05
2018-01-29T21:11:17.760Z,95058.02
2018-01-29T21:13:45.070Z,95056.52
2018-01-29T21:16:11.774Z,95055.67
2018-01-29T21:18:39.106Z,95054.61
2018-01-29T21:21:05.763Z,95056.02
2018-01-29T21:23:32.652Z,95054.77
2018-01-29T21:25:59.287Z,95059.33
2018-01-29T21:28:25.910Z,95063.06
2018-01-29T21:30:52.587Z,95091.99
2018-01-29T21:33:20.004Z,95088.36
2018-01-29T21:35:46.598Z,95096.28
2018-01-29T21:38:14.002Z,95093.34
2018-01-29T21:40:40.639Z,95089.53
2018-01-29T21:43:07.251Z,95096.34
2018-01-29T21:45:33.874Z,95100.52
2018-01-29T21:48:01.191Z,95106.45
2018-01-29T21:50:27.875Z,95112.73
2018-01-29T21:52:54.599Z,95110.94
2018-01-29T21:55:22.010Z,95117.07
2018-01-29T21:57:48.655Z,95104.43
2018-01-29T22:00:15.283Z,95108.20
2018-01-29T22:02:41.921Z,95110.83
2018-01-29T22:05:08.556Z,95109.45
2018-01-29T22:07:35.178Z,95097.06
2018-01-29T22:10:02.584Z,95097.63
2018-01-29T22:12:29.173Z,95088.84
2018-01-29T22:14:55.777Z,95093.66
2018-01-29T22:17:23.120Z,95109.85
2018-01-29T22:19:49.867Z,95111.50
2018-01-29T22:22:17.194Z,95110.74
2018-01-29T22:24:43.781Z,95109.66
2018-01-29T22:27:10.409Z,95109.50
2018-01-29T22:29:37.016Z,95111.57
2018-01-29T22:32:03.621Z,95111.98
2018-01-29T22:34:30.282Z,95109.97
2018-01-29T22:36:57.020Z,95112.48
2018-01-29T22:39:23.657Z,95109.61
2018-01-29T22:41:50.246Z,95109.21
2018-01-29T22:44:17.110Z,95108.78
2018-01-29T22:46:43.661Z,95108.83
2018-01-29T22:49:10.986Z,95110.12
2018-01-29T22:51:37.622Z,95101.45
2018-01-29T22:54:04.188Z,95097.49
2018-01-29T22:56:30.792Z,95089.52
2018-01-29T22:58:57.394Z,95096.09
2018-01-29T23:01:23.982Z,95092.67
2018-01-29T23:03:50.597Z,95086.40
2018-01-29T23:06:17.250Z,95078.69
2018-01-29T23:08:43.819Z,95075.55
2018-01-29T23:11:10.498Z,95071.29
2018-01-29T23:13:37.798Z,95075.59
2018-01-29T23:16:04.374Z,95082.16
2018-01-29T23:18:30.969Z,95080.27
2018-01-29T23:20:58.270Z,95085.08
2018-01-29T23:23:24.853Z,95083.05
2018-01-29T23:25:51.436Z,95086.95
2018-01-29T23:28:18.777Z,95086.03
2018-01-29T23:30:45.362Z,95090.98
2018-01-29T23:33:11.982Z,95086.33
2018-01-29T23:35:38.593Z,95086.07
2018-01-29T23:38:05.948Z,95085.52
2018-01-29T23:40:33.298Z,95092.39
2018-01-29T23:42:59.883Z,95087.08
2018-01-29T23:45:26.446Z,95089.00
2018-01-29T23:47:53.094Z,95083.05
2018-01-29T23:50:19.682Z,95080.30
2018-01-29T23:52:46.270Z,95073.30
2018-01-29T23:55:12.885Z,95071.36
2018-01-29T23:57:39.477Z,95078.08
